Time;durP1;ratioP1;P1;durP2;ratioP2;P2;SDS_P1;SDS_P2;PMS_P1;PMS_P2;Temp;Humidity;BMP_temperature;BMP_pressure;BME280_temperature;BME280_humidity;BME280_pressure;Samples;Min_cycle;Max_cycle;Signal;HPM_P1;HPM_P2
2022/01/10 00:00:11;;;;;;;16.77;10.83;;;5.70;99.90;;;;;;5013561;28;20189;-70
2022/01/10 00:02:37;;;;;;;23.20;11.20;;;5.70;99.90;;;;;;5013783;28;20182;-70
2022/01/10 00:05:04;;;;;;;18.57;10.40;;;5.60;99.90;;;;;;4996287;28;20466;-70
2022/01/10 00:07:29;;;;;;;19.83;11.10;;;5.60;99.90;;;;;;5013329;28;20853;-70
2022/01/10 00:09:55;;;;;;;18.90;11.13;;;5.40;99.90;;;;;;5013770;28;20477;-70
2022/01/10 00:12:20;;;;;;;17.83;11.03;;;5.40;99.90;;;;;;5013443;28;20175;-71
2022/01/10 00:14:46;;;;;;;18.77;11.20;;;5.40;99.90;;;;;;5013459;28;20176;-70
2022/01/10 00:17:11;;;;;;;18.93;11.57;;;5.40;99.90;;;;;;5013512;28;20204;-70
2022/01/10 00:19:37;;;;;;;22.07;11.87;;;5.40;99.90;;;;;;5013288;28;20551;-69
2022/01/10 00:22:06;;;;;;;30.43;12.47;;;5.40;99.90;;;;;;5013391;28;20175;-70
2022/01/10 00:24:32;;;;;;;18.23;10.50;;;5.30;99.90;;;;;;5013116;28;20194;-70
2022/01/10 00:26:57;;;;;;;15.43;11.10;;;5.30;99.90;;;;;;5013462;28;20430;-71
2022/01/10 00:29:23;;;;;;;22.00;10.80;;;5.20;99.90;;;;;;5013257;28;20210;-70
2022/01/10 00:31:48;;;;;;;18.43;10.47;;;5.20;99.90;;;;;;5013387;28;20255;-71
2022/01/10 00:34:14;;;;;;;16.87;12.03;;;5.10;99.90;;;;;;5013299;28;20180;-70
2022/01/10 00:36:39;;;;;;;17.20;11.63;;;5.10;99.90;;;;;;5012462;28;20203;-70
2022/01/10 00:39:05;;;;;;;25.23;11.93;;;5.10;99.90;;;;;;5008361;28;20617;-70
2022/01/10 00:41:32;;;;;;;19.43;11.70;;;5.00;99.90;;;;;;5012881;28;20168;-71
2022/01/10 00:43:58;;;;;;;22.60;11.80;;;5.00;99.90;;;;;;5013183;28;20980;-71
2022/01/10 00:46:23;;;;;;;24.43;12.17;;;4.90;99.90;;;;;;5013144;28;20489;-71
2022/01/10 00:48:49;;;;;;;20.33;11.70;;;4.90;99.90;;;;;;5013167;28;20478;-71
2022/01/10 00:51:15;;;;;;;23.63;13.27;;;4.80;99.90;;;;;;5012321;28;20232;-70
2022/01/10 00:53:43;;;;;;;19.27;11.87;;;4.80;99.90;;;;;;5013622;28;20175;-70
2022/01/10 00:56:09;;;;;;;21.43;11.67;;;4.80;99.90;;;;;;5012796;28;20229;-70
2022/01/10 00:58:36;;;;;;;28.13;14.27;;;4.80;99.90;;;;;;5013385;28;20434;-71
2022/01/10 01:01:05;;;;;;;22.10;12.10;;;4.80;99.90;;;;;;4996012;28;20471;-70
2022/01/10 01:03:31;;;;;;;23.47;12.40;;;4.80;99.90;;;;;;5013287;28;20413;-70
2022/01/10 01:05:56;;;;;;;21.63;12.43;;;4.70;99.90;;;;;;5012962;28;20465;-71
2022/01/10 01:08:22;;;;;;;18.67;11.70;;;4.70;99.90;;;;;;5013659;28;20194;-71
2022/01/10 01:13:27;;;;;;;24.90;12.83;;;4.70;99.90;;;;;;5013839;28;20170;-71
2022/01/10 01:24:07;;;;;;;23.13;12.77;;;4.50;99.90;;;;;;5012657;28;20406;-71
2022/01/10 01:26:39;;;;;;;17.73;10.93;;;4.40;99.90;;;;;;5012079;28;20465;-71
2022/01/10 01:29:07;;;;;;;27.23;13.13;;;4.30;99.90;;;;;;5012609;28;20411;-71
2022/01/10 01:31:33;;;;;;;21.87;11.90;;;4.20;99.90;;;;;;5012256;28;20423;-71
2022/01/10 01:33:58;;;;;;;26.03;13.97;;;4.20;99.90;;;;;;5012403;28;20429;-71
2022/01/10 01:36:26;;;;;;;22.80;12.23;;;4.10;99.90;;;;;;5011941;28;20428;-71
2022/01/10 01:38:54;;;;;;;23.67;13.43;;;4.00;99.90;;;;;;5012765;28;20180;-70
2022/01/10 01:41:35;;;;;;;22.47;13.20;;;4.00;99.90;;;;;;5012361;28;20414;-71
2022/01/10 01:44:02;;;;;;;20.83;12.70;;;4.00;99.90;;;;;;5012518;28;20403;-71
2022/01/10 01:46:29;;;;;;;19.33;12.60;;;4.10;99.90;;;;;;5012036;28;20469;-71
2022/01/10 01:48:55;;;;;;;24.63;13.17;;;4.10;99.90;;;;;;5011929;28;20409;-71
2022/01/10 01:51:22;;;;;;;22.47;12.70;;;4.00;99.90;;;;;;5012489;28;20437;-71
2022/01/10 01:53:48;;;;;;;17.00;12.23;;;4.00;99.90;;;;;;5011806;28;20416;-71
2022/01/10 01:56:15;;;;;;;21.70;11.93;;;4.00;99.90;;;;;;5011911;28;20838;-71
2022/01/10 01:58:42;;;;;;;23.13;12.17;;;4.00;99.90;;;;;;5012009;28;20416;-70
2022/01/10 02:01:09;;;;;;;28.50;12.80;;;3.80;99.90;;;;;;5012814;28;20404;-71
2022/01/10 02:03:38;;;;;;;20.50;12.00;;;3.70;99.90;;;;;;5016203;28;20988;-71
2022/01/10 02:06:05;;;;;;;22.83;11.57;;;3.60;99.90;;;;;;5015823;28;20462;-71
2022/01/10 02:08:30;;;;;;;20.00;12.93;;;3.50;99.90;;;;;;4998717;28;20449;-71
2022/01/10 02:10:56;;;;;;;19.00;12.97;;;3.50;99.90;;;;;;5016151;28;20408;-72
2022/01/10 02:13:22;;;;;;;20.53;12.63;;;3.50;99.90;;;;;;5016412;28;20174;-71
2022/01/10 02:15:57;;;;;;;22.80;12.60;;;3.60;99.90;;;;;;5015790;28;20203;-70
2022/01/10 02:18:23;;;;;;;19.50;12.60;;;3.60;99.90;;;;;;5016285;28;20159;-70
2022/01/10 02:20:49;;;;;;;21.03;12.40;;;3.60;99.90;;;;;;5015978;28;20476;-71
2022/01/10 02:23:16;;;;;;;20.10;12.23;;;3.50;99.90;;;;;;5016677;28;20196;-71
2022/01/10 02:25:43;;;;;;;21.87;14.47;;;3.40;99.90;;;;;;5015662;28;20463;-71
2022/01/10 02:28:09;;;;;;;19.70;12.40;;;3.40;99.90;;;;;;5016036;28;20852;-71
2022/01/10 02:30:35;;;;;;;23.00;13.70;;;3.40;99.90;;;;;;5015795;28;20444;-71
2022/01/10 02:33:01;;;;;;;18.70;13.20;;;3.30;99.90;;;;;;5016383;28;20206;-71
2022/01/10 02:35:34;;;;;;;24.33;13.97;;;3.40;99.90;;;;;;5016131;28;20576;-71
2022/01/10 02:37:59;;;;;;;28.40;13.83;;;3.40;99.90;;;;;;5010963;28;20653;-71
2022/01/10 02:40:28;;;;;;;23.83;13.67;;;3.40;99.90;;;;;;5015214;28;20425;-70
2022/01/10 02:42:53;;;;;;;24.73;13.40;;;3.40;99.90;;;;;;5006186;28;20197;-71
2022/01/10 02:45:20;;;;;;;27.17;13.40;;;3.50;99.90;;;;;;5015903;28;21006;-71
2022/01/10 02:47:47;;;;;;;28.53;13.57;;;3.50;99.90;;;;;;5015415;28;20181;-71
2022/01/10 02:50:14;;;;;;;24.63;13.00;;;3.40;99.90;;;;;;5015709;28;20410;-70
2022/01/10 02:52:40;;;;;;;21.70;13.17;;;3.30;99.90;;;;;;5015915;28;20423;-71
2022/01/10 02:55:08;;;;;;;22.33;13.37;;;3.20;99.90;;;;;;5015698;28;20417;-70
2022/01/10 02:57:34;;;;;;;31.47;15.10;;;3.10;99.90;;;;;;4998088;28;20481;-71
2022/01/10 03:00:06;;;;;;;24.30;13.90;;;3.20;99.90;;;;;;5016098;28;20411;-71
2022/01/10 03:02:33;;;;;;;21.73;13.30;;;3.20;99.90;;;;;;5015867;28;20410;-71
2022/01/10 03:04:58;;;;;;;26.50;13.70;;;3.10;99.90;;;;;;5016014;28;20542;-71
2022/01/10 03:07:24;;;;;;;27.47;14.13;;;3.10;99.90;;;;;;5015687;28;20483;-71
2022/01/10 03:09:51;;;;;;;27.37;14.70;;;3.10;99.90;;;;;;4999431;28;20179;-71
2022/01/10 03:12:17;;;;;;;27.00;14.77;;;3.00;99.90;;;;;;5015587;28;20527;-71
2022/01/10 03:14:43;;;;;;;25.00;14.20;;;3.00;99.90;;;;;;5016012;28;20425;-71
2022/01/10 03:17:10;;;;;;;23.00;13.43;;;3.00;99.90;;;;;;5016273;28;20192;-71
2022/01/10 03:19:39;;;;;;;25.40;15.17;;;2.80;99.90;;;;;;5015875;28;20435;-70
2022/01/10 03:22:06;;;;;;;20.73;14.30;;;2.80;99.90;;;;;;5015809;28;20954;-71
2022/01/10 03:24:32;;;;;;;23.27;13.47;;;2.70;99.90;;;;;;5015659;28;20410;-71
2022/01/10 03:26:57;;;;;;;23.33;14.03;;;2.70;99.90;;;;;;5014782;28;20503;-70
2022/01/10 03:29:23;;;;;;;21.77;13.40;;;2.70;99.90;;;;;;5015415;28;20171;-71
2022/01/10 03:31:49;;;;;;;22.10;13.60;;;2.60;99.90;;;;;;5015414;28;20186;-70
2022/01/10 03:34:14;;;;;;;25.77;14.23;;;2.60;99.90;;;;;;5015525;28;20168;-70
2022/01/10 03:36:40;;;;;;;26.03;14.83;;;2.70;99.90;;;;;;5014946;28;20438;-70
2022/01/10 03:39:07;;;;;;;20.13;13.60;;;2.80;99.90;;;;;;5015218;28;20186;-70
2022/01/10 03:41:33;;;;;;;24.30;14.63;;;2.80;99.90;;;;;;5015221;28;20416;-69
2022/01/10 03:43:59;;;;;;;22.43;13.70;;;2.70;99.90;;;;;;5015059;28;20831;-70
2022/01/10 03:46:25;;;;;;;24.03;14.80;;;2.60;99.90;;;;;;5014935;28;20512;-70
2022/01/10 03:48:51;;;;;;;20.67;14.30;;;2.70;99.90;;;;;;5015171;28;20165;-70
2022/01/10 03:51:16;;;;;;;19.70;14.00;;;2.60;99.90;;;;;;5015265;28;20502;-69
2022/01/10 03:53:42;;;;;;;24.73;14.33;;;2.60;99.90;;;;;;5015354;28;20633;-70
2022/01/10 03:56:07;;;;;;;25.10;15.27;;;2.60;99.90;;;;;;5014522;28;20195;-70
2022/01/10 03:58:33;;;;;;;27.73;15.17;;;2.60;99.90;;;;;;5015049;28;20171;-70
2022/01/10 04:01:01;;;;;;;29.27;14.43;;;2.60;99.90;;;;;;5014655;28;20184;-70
2022/01/10 04:03:26;;;;;;;29.27;15.40;;;2.70;99.90;;;;;;5014711;28;20175;-70
2022/01/10 04:05:52;;;;;;;23.73;16.23;;;2.70;99.90;;;;;;5013240;28;20822;-72
2022/01/10 04:08:18;;;;;;;28.27;16.43;;;2.60;99.90;;;;;;4997036;28;20179;-70
2022/01/10 04:10:43;;;;;;;23.40;14.50;;;2.70;99.90;;;;;;5014734;28;20218;-69
2022/01/10 04:13:09;;;;;;;26.17;16.00;;;2.50;99.90;;;;;;5014659;28;20170;-69
2022/01/10 04:15:34;;;;;;;22.77;15.37;;;2.50;99.90;;;;;;5014259;28;20202;-70
2022/01/10 04:18:02;;;;;;;34.37;16.97;;;2.50;99.90;;;;;;5014537;28;20233;-70
2022/01/10 04:20:27;;;;;;;25.60;16.03;;;2.40;99.90;;;;;;5014584;28;20686;-70
2022/01/10 04:22:53;;;;;;;30.00;15.60;;;2.40;99.90;;;;;;5014691;28;20403;-69
2022/01/10 04:25:20;;;;;;;30.73;16.60;;;2.40;99.90;;;;;;5012875;28;20658;-70
2022/01/10 04:27:45;;;;;;;25.50;16.30;;;2.50;99.90;;;;;;5004286;28;20198;-69
2022/01/10 04:30:11;;;;;;;29.37;15.27;;;2.40;99.90;;;;;;5014297;28;21135;-70
2022/01/10 04:32:38;;;;;;;26.23;17.20;;;2.30;99.90;;;;;;5014777;28;20175;-70
2022/01/10 04:35:05;;;;;;;32.47;16.77;;;2.20;99.90;;;;;;4996796;28;20494;-70
2022/01/10 04:37:31;;;;;;;37.10;16.03;;;2.20;99.90;;;;;;5013604;28;20790;-70
2022/01/10 04:39:56;;;;;;;30.63;15.90;;;2.20;99.90;;;;;;5013916;28;20427;-70
2022/01/10 04:42:22;;;;;;;27.57;16.27;;;2.20;99.90;;;;;;5013941;28;20172;-69
2022/01/10 04:44:49;;;;;;;25.13;17.47;;;2.20;99.90;;;;;;5013874;28;20182;-71
2022/01/10 04:47:14;;;;;;;27.57;15.10;;;2.20;99.90;;;;;;5010454;28;20549;-69
2022/01/10 04:52:32;;;;;;;28.57;15.33;;;2.20;99.90;;;;;;4983723;28;20187;-70
2022/01/10 04:54:59;;;;;;;27.10;14.73;;;2.20;99.90;;;;;;5006970;28;20426;-71
2022/01/10 04:57:25;;;;;;;30.67;14.83;;;2.20;99.90;;;;;;5007509;28;20203;-70
2022/01/10 04:59:51;;;;;;;27.33;15.43;;;2.20;99.90;;;;;;5011592;28;20430;-71
2022/01/10 05:02:16;;;;;;;23.33;14.90;;;2.20;99.90;;;;;;5010390;28;20430;-72
2022/01/10 05:04:42;;;;;;;26.87;15.53;;;2.20;99.90;;;;;;5010272;28;20168;-72
2022/01/10 05:07:08;;;;;;;28.30;16.13;;;2.20;99.90;;;;;;5006173;28;20722;-72
2022/01/10 05:09:34;;;;;;;25.20;14.43;;;2.20;99.90;;;;;;5011796;28;20632;-72
2022/01/10 05:12:00;;;;;;;25.90;15.00;;;2.20;99.90;;;;;;5011620;28;20410;-72
2022/01/10 05:14:26;;;;;;;26.53;15.70;;;2.20;99.90;;;;;;5013777;28;20468;-69
2022/01/10 05:16:52;;;;;;;29.00;15.63;;;2.10;99.90;;;;;;5013396;28;20561;-71
2022/01/10 05:19:17;;;;;;;25.77;15.90;;;2.10;99.90;;;;;;5013210;28;20171;-69
2022/01/10 05:21:43;;;;;;;25.67;15.07;;;2.10;99.90;;;;;;5012805;28;20835;-69
2022/01/10 05:24:09;;;;;;;27.90;15.03;;;2.00;99.90;;;;;;5013266;28;20442;-71
2022/01/10 05:26:35;;;;;;;27.83;16.43;;;1.90;99.90;;;;;;5012563;28;20212;-70
2022/01/10 05:29:02;;;;;;;26.10;15.90;;;1.90;99.90;;;;;;5012779;28;20406;-71
2022/01/10 05:31:29;;;;;;;36.20;16.30;;;1.90;99.90;;;;;;5013001;28;20442;-71
2022/01/10 05:33:56;;;;;;;23.80;15.37;;;1.90;99.90;;;;;;5012364;28;20446;-71
2022/01/10 05:36:22;;;;;;;24.77;16.87;;;1.90;99.90;;;;;;5010352;28;21145;-71
2022/01/10 05:38:48;;;;;;;25.87;15.30;;;2.00;99.90;;;;;;5012127;28;20417;-70
2022/01/10 05:41:14;;;;;;;28.33;16.10;;;1.90;99.90;;;;;;4994167;28;20525;-70
2022/01/10 05:43:40;;;;;;;29.77;17.40;;;2.00;99.90;;;;;;5012084;28;20207;-71
2022/01/10 05:46:09;;;;;;;39.03;22.07;;;2.10;99.90;;;;;;5011724;28;21011;-71
2022/01/10 05:48:39;;;;;;;39.47;23.47;;;2.10;99.90;;;;;;5012555;28;20180;-70
2022/01/10 05:51:05;;;;;;;36.30;23.90;;;2.10;99.90;;;;;;5011936;28;20744;-71
2022/01/10 05:53:31;;;;;;;34.03;22.53;;;2.00;99.90;;;;;;5012420;28;20434;-71
2022/01/10 05:55:57;;;;;;;27.50;19.20;;;2.00;99.90;;;;;;5012078;28;20931;-71
2022/01/10 05:58:23;;;;;;;29.43;18.60;;;1.90;99.90;;;;;;5012468;28;20806;-71
2022/01/10 06:00:49;;;;;;;33.77;20.63;;;1.90;99.90;;;;;;5012517;28;20183;-70
2022/01/10 06:03:15;;;;;;;31.50;20.57;;;1.90;99.90;;;;;;5012925;28;20406;-71
2022/01/10 06:05:41;;;;;;;32.30;20.20;;;2.00;99.90;;;;;;5012429;28;20493;-71
2022/01/10 06:08:07;;;;;;;37.27;20.00;;;2.10;99.90;;;;;;5011830;28;20237;-71
2022/01/10 06:10:33;;;;;;;35.17;21.30;;;2.10;99.90;;;;;;5012103;28;20485;-71
2022/01/10 06:12:59;;;;;;;34.03;20.40;;;2.20;99.90;;;;;;5012099;28;20508;-71
2022/01/10 06:15:24;;;;;;;37.30;22.57;;;2.20;99.90;;;;;;5012054;28;20206;-72
2022/01/10 06:17:51;;;;;;;28.57;21.03;;;2.30;99.90;;;;;;5012272;28;20403;-72
2022/01/10 06:20:17;;;;;;;31.33;21.00;;;2.40;99.90;;;;;;5012009;28;20172;-71
2022/01/10 06:22:43;;;;;;;37.57;22.43;;;2.50;99.90;;;;;;5012023;28;20406;-72
2022/01/10 06:25:11;;;;;;;35.50;20.47;;;2.60;99.90;;;;;;5011713;28;20517;-72
2022/01/10 06:27:37;;;;;;;30.77;19.07;;;2.80;99.90;;;;;;5011739;28;20464;-71
2022/01/10 06:30:04;;;;;;;32.17;18.33;;;2.90;99.90;;;;;;5011998;28;20498;-72
2022/01/10 06:32:30;;;;;;;30.37;18.97;;;3.00;99.90;;;;;;5011785;28;20271;-70
2022/01/10 06:34:57;;;;;;;28.50;17.23;;;3.10;99.90;;;;;;5012035;28;20438;-71
2022/01/10 06:37:22;;;;;;;29.30;17.50;;;3.20;99.90;;;;;;5011767;28;20660;-71
2022/01/10 06:39:48;;;;;;;27.37;16.83;;;3.20;99.90;;;;;;5012106;28;20445;-72
2022/01/10 06:42:13;;;;;;;25.70;16.30;;;3.30;99.90;;;;;;5011915;28;20176;-71
2022/01/10 06:44:39;;;;;;;29.03;17.40;;;3.30;99.90;;;;;;5011204;28;20172;-71
2022/01/10 06:47:05;;;;;;;27.80;19.20;;;3.30;99.90;;;;;;5012975;28;20245;-72
2022/01/10 06:49:30;;;;;;;29.90;19.27;;;3.40;99.90;;;;;;5014462;28;20175;-72
2022/01/10 06:51:56;;;;;;;31.67;21.63;;;3.40;99.90;;;;;;5015140;28;20168;-72
2022/01/10 06:54:22;;;;;;;30.80;19.37;;;3.30;99.90;;;;;;5015283;28;20171;-71
2022/01/10 06:56:47;;;;;;;29.97;19.33;;;3.20;99.90;;;;;;5014796;28;20992;-71
2022/01/10 06:59:13;;;;;;;36.53;18.90;;;3.10;99.90;;;;;;5015165;28;20177;-71
2022/01/10 07:01:39;;;;;;;31.67;18.87;;;3.10;99.90;;;;;;5014692;28;20180;-70
2022/01/10 07:04:04;;;;;;;29.10;17.97;;;3.00;99.90;;;;;;5014642;28;20196;-71
2022/01/10 07:06:30;;;;;;;31.27;19.90;;;3.00;99.90;;;;;;5013717;28;20747;-71
2022/01/10 07:08:56;;;;;;;30.63;19.13;;;3.00;99.90;;;;;;5014486;28;20417;-71
2022/01/10 07:11:21;;;;;;;33.33;19.70;;;3.00;99.90;;;;;;5014379;28;20168;-71
2022/01/10 07:13:47;;;;;;;26.30;19.77;;;3.00;99.90;;;;;;5014527;28;20230;-70
2022/01/10 07:16:12;;;;;;;27.63;19.70;;;3.00;99.90;;;;;;5014413;28;20238;-72
2022/01/10 07:18:39;;;;;;;27.57;19.43;;;3.00;99.90;;;;;;5014420;28;20171;-72
2022/01/10 07:21:05;;;;;;;34.83;20.27;;;3.00;99.90;;;;;;5013520;28;20188;-72
2022/01/10 07:23:30;;;;;;;27.30;18.30;;;3.00;99.90;;;;;;5014717;28;20793;-72
2022/01/10 07:25:56;;;;;;;31.33;17.77;;;3.10;99.90;;;;;;5013860;28;20466;-71
2022/01/10 07:28:21;;;;;;;25.80;17.83;;;3.20;99.90;;;;;;5014365;28;20175;-72
2022/01/10 07:30:49;;;;;;;27.70;18.83;;;3.20;99.90;;;;;;5014232;28;20171;-71
2022/01/10 07:33:15;;;;;;;29.70;18.70;;;3.20;99.90;;;;;;4996709;28;20688;-71
2022/01/10 07:35:40;;;;;;;29.67;18.37;;;3.10;99.90;;;;;;5009651;28;20458;-70
2022/01/10 07:38:06;;;;;;;31.27;17.60;;;3.00;99.90;;;;;;5010492;28;20447;-70
2022/01/10 07:40:32;;;;;;;36.53;19.17;;;3.00;99.90;;;;;;5018599;28;20305;-72
2022/01/10 07:42:57;;;;;;;29.63;17.63;;;3.00;99.90;;;;;;5018406;28;20234;-70
2022/01/10 07:45:23;;;;;;;28.77;18.33;;;3.00;99.90;;;;;;5030070;28;20203;-71
2022/01/10 07:47:49;;;;;;;26.30;18.77;;;2.90;99.90;;;;;;5026707;28;20241;-71
2022/01/10 07:50:14;;;;;;;25.63;17.33;;;3.00;99.90;;;;;;5017712;28;20233;-70
2022/01/10 07:52:40;;;;;;;31.43;17.90;;;3.10;99.90;;;;;;5025260;28;20212;-71
2022/01/10 07:55:06;;;;;;;28.37;18.43;;;3.10;99.90;;;;;;5012722;28;20215;-71
2022/01/10 07:57:32;;;;;;;36.40;22.70;;;3.20;99.90;;;;;;5012770;28;20577;-71
2022/01/10 07:59:57;;;;;;;32.13;21.77;;;3.30;99.90;;;;;;5024585;28;20509;-70
2022/01/10 08:02:24;;;;;;;34.27;20.10;;;3.30;99.90;;;;;;5033010;28;20207;-71
2022/01/10 08:04:49;;;;;;;31.93;18.67;;;3.40;99.90;;;;;;5007506;28;20550;-71
2022/01/10 08:07:15;;;;;;;28.27;18.23;;;3.50;99.90;;;;;;5016197;28;20437;-71
2022/01/10 08:09:41;;;;;;;30.17;17.53;;;3.50;99.90;;;;;;5032687;28;20283;-71
2022/01/10 08:12:07;;;;;;;28.97;18.70;;;3.50;99.90;;;;;;5023909;28;20206;-72
2022/01/10 08:14:33;;;;;;;30.93;19.37;;;3.50;99.90;;;;;;5039012;22;20235;-68
2022/01/10 08:16:59;;;;;;;34.10;18.90;;;3.60;99.90;;;;;;5021722;28;20428;-69
2022/01/10 08:19:27;;;;;;;32.60;19.37;;;3.60;99.90;;;;;;5013866;28;20403;-68
2022/01/10 08:21:55;;;;;;;31.93;20.20;;;3.60;99.90;;;;;;5050919;28;20445;-69
2022/01/10 08:24:22;;;;;;;34.53;18.90;;;3.60;99.90;;;;;;5053664;28;20533;-68
2022/01/10 08:26:48;;;;;;;35.77;18.67;;;3.60;99.90;;;;;;5053069;28;20467;-69
2022/01/10 08:29:14;;;;;;;34.33;20.10;;;3.70;99.90;;;;;;5053368;28;20418;-69
2022/01/10 08:31:40;;;;;;;34.33;18.30;;;3.70;99.90;;;;;;5053305;28;20413;-69
2022/01/10 08:34:06;;;;;;;30.20;18.57;;;3.70;99.90;;;;;;5053443;28;20616;-68
2022/01/10 08:36:33;;;;;;;26.07;17.47;;;3.80;99.90;;;;;;5052775;28;20167;-68
2022/01/10 08:38:59;;;;;;;28.00;19.20;;;3.80;99.90;;;;;;5033986;28;20421;-69
2022/01/10 08:41:24;;;;;;;33.83;19.67;;;3.90;99.90;;;;;;5031728;28;20439;-69
2022/01/10 08:43:50;;;;;;;33.33;20.03;;;4.00;99.90;;;;;;5033137;28;20435;-68
2022/01/10 08:46:15;;;;;;;32.40;19.30;;;4.00;99.90;;;;;;5032878;28;20844;-68
2022/01/10 08:48:41;;;;;;;33.20;19.93;;;4.10;99.90;;;;;;5034442;28;20638;-68
2022/01/10 08:51:07;;;;;;;30.97;17.77;;;4.10;99.90;;;;;;5033346;28;20175;-67
2022/01/10 08:53:33;;;;;;;35.70;19.07;;;4.20;99.90;;;;;;5032628;28;20174;-68
2022/01/10 08:55:59;;;;;;;30.77;19.70;;;4.30;99.90;;;;;;5032808;28;20415;-68
2022/01/10 08:58:32;;;;;;;29.50;18.07;;;4.30;99.90;;;;;;5032744;28;20428;-68
2022/01/10 09:00:58;;;;;;;33.73;20.30;;;4.40;99.90;;;;;;5033212;28;20806;-68
2022/01/10 09:03:24;;;;;;;31.17;19.10;;;4.50;99.90;;;;;;5031355;28;20729;-68
2022/01/10 09:05:49;;;;;;;32.57;20.43;;;4.60;99.90;;;;;;5031342;28;20475;-68
2022/01/10 09:08:15;;;;;;;35.13;20.97;;;4.70;99.90;;;;;;5032749;28;20180;-70
2022/01/10 09:10:40;;;;;;;30.10;19.33;;;4.70;99.90;;;;;;5032199;28;20513;-68
2022/01/10 09:13:07;;;;;;;33.53;19.57;;;4.70;99.90;;;;;;5051746;28;20177;-68
2022/01/10 09:15:33;;;;;;;31.60;19.10;;;4.80;99.90;;;;;;5053318;28;20208;-67
2022/01/10 09:18:00;;;;;;;29.60;18.60;;;4.80;99.90;;;;;;5052802;28;20443;-69
2022/01/10 09:20:25;;;;;;;29.23;18.87;;;4.90;99.90;;;;;;5051636;28;20497;-68
2022/01/10 09:22:51;;;;;;;31.50;20.03;;;4.90;99.90;;;;;;5050998;28;20916;-68
2022/01/10 09:25:17;;;;;;;35.23;20.87;;;4.90;99.90;;;;;;5051858;28;20248;-68
2022/01/10 09:27:42;;;;;;;33.73;21.67;;;5.00;99.90;;;;;;5051653;28;20180;-69
2022/01/10 09:30:09;;;;;;;33.77;21.00;;;5.00;99.90;;;;;;5051862;28;20177;-68
2022/01/10 09:32:34;;;;;;;35.93;19.97;;;4.90;99.90;;;;;;5050776;28;20179;-69
2022/01/10 09:35:00;;;;;;;34.43;20.43;;;4.90;99.90;;;;;;5051750;28;20522;-69
2022/01/10 09:37:27;;;;;;;31.00;17.67;;;4.90;99.90;;;;;;5051616;28;20177;-69
2022/01/10 09:39:52;;;;;;;28.60;20.30;;;4.90;99.90;;;;;;5051811;28;20165;-69
2022/01/10 09:42:18;;;;;;;36.47;21.67;;;4.90;99.90;;;;;;5051970;28;20423;-69
2022/01/10 09:44:44;;;;;;;42.20;23.43;;;4.70;99.90;;;;;;5051515;28;20239;-68
2022/01/10 09:47:09;;;;;;;35.60;22.23;;;4.80;99.90;;;;;;5051535;28;20202;-68
2022/01/10 09:49:35;;;;;;;34.77;22.47;;;4.80;99.90;;;;;;5051964;28;20158;-68
2022/01/10 09:52:00;;;;;;;31.77;19.73;;;4.70;99.90;;;;;;5052143;28;20626;-69
2022/01/10 09:54:26;;;;;;;39.33;22.87;;;4.70;99.90;;;;;;5051891;28;20235;-68
2022/01/10 09:56:51;;;;;;;32.57;20.33;;;4.60;99.90;;;;;;5051698;28;20176;-69
2022/01/10 09:59:17;;;;;;;32.97;20.50;;;4.40;99.90;;;;;;5051523;28;20536;-69
2022/01/10 10:01:49;;;;;;;33.20;20.40;;;4.30;99.90;;;;;;5050637;28;20176;-69
2022/01/10 10:04:15;;;;;;;35.00;20.77;;;4.20;99.90;;;;;;5053908;28;20949;-69
2022/01/10 10:06:40;;;;;;;36.87;21.80;;;4.10;99.90;;;;;;5053088;28;20441;-69
2022/01/10 10:09:08;;;;;;;44.90;26.50;;;4.10;99.90;;;;;;5052017;28;20183;-68
2022/01/10 10:11:54;;;;;;;40.77;24.00;;;4.20;99.90;;;;;;5045480;28;20180;-68
2022/01/10 10:14:22;;;;;;;40.07;24.10;;;4.30;99.90;;;;;;5031270;28;20458;-69
2022/01/10 10:16:50;;;;;;;36.13;21.97;;;4.40;99.90;;;;;;5031184;28;20413;-68
2022/01/10 10:19:18;;;;;;;38.30;22.17;;;4.60;99.90;;;;;;5031538;28;20796;-68
2022/01/10 10:21:44;;;;;;;40.93;22.90;;;4.70;99.90;;;;;;5031803;28;20456;-68
2022/01/10 10:24:10;;;;;;;41.07;22.50;;;4.80;99.90;;;;;;5035188;28;20427;-67
2022/01/10 10:26:35;;;;;;;33.30;22.33;;;4.90;99.90;;;;;;5035342;28;20190;-68
2022/01/10 10:29:02;;;;;;;34.50;23.77;;;5.10;99.90;;;;;;5035122;28;20433;-69
2022/01/10 10:31:36;;;;;;;35.43;22.83;;;5.20;99.90;;;;;;5035569;28;20423;-68
2022/01/10 10:34:04;;;;;;;37.37;24.60;;;5.20;99.90;;;;;;5035135;28;20464;-69
2022/01/10 10:36:32;;;;;;;38.00;23.53;;;5.30;99.90;;;;;;5034919;28;20409;-69
2022/01/10 10:39:01;;;;;;;35.93;20.27;;;5.40;99.90;;;;;;5034862;28;20544;-68
2022/01/10 10:41:26;;;;;;;35.30;21.80;;;5.50;99.90;;;;;;5035573;28;20459;-69
2022/01/10 10:43:54;;;;;;;35.17;20.03;;;5.60;99.90;;;;;;5035045;28;20520;-68
2022/01/10 10:46:24;;;;;;;35.70;20.70;;;5.60;99.90;;;;;;5034877;28;20191;-69
2022/01/10 10:48:52;;;;;;;29.27;19.57;;;5.70;99.90;;;;;;5035054;28;20412;-68
2022/01/10 10:51:18;;;;;;;29.80;20.80;;;5.80;99.90;;;;;;5035117;28;20413;-68
2022/01/10 10:53:44;;;;;;;36.53;20.47;;;5.80;99.90;;;;;;5035170;28;20524;-69
2022/01/10 10:56:10;;;;;;;41.27;20.60;;;5.80;99.90;;;;;;5036533;28;20175;-69
2022/01/10 10:58:36;;;;;;;33.60;19.17;;;5.90;99.90;;;;;;5035167;28;20416;-69
2022/01/10 11:01:03;;;;;;;33.87;21.43;;;5.90;99.90;;;;;;5033547;28;20210;-70
2022/01/10 11:03:29;;;;;;;32.23;21.03;;;5.90;99.90;;;;;;5034774;28;20463;-69
2022/01/10 11:05:59;;;;;;;33.73;20.70;;;5.90;99.90;;;;;;5034177;28;20453;-69
2022/01/10 11:08:31;;;;;;;33.30;19.10;;;5.90;99.90;;;;;;5035372;28;20440;-69
2022/01/10 11:11:00;;;;;;;37.03;19.77;;;6.00;99.90;;;;;;5036285;28;20409;-69
2022/01/10 11:13:27;;;;;;;31.63;20.03;;;6.00;99.90;;;;;;5054405;28;20416;-70
2022/01/10 11:15:55;;;;;;;32.63;20.13;;;6.00;99.90;;;;;;5054136;28;20952;-69
2022/01/10 11:18:23;;;;;;;37.63;20.13;;;6.00;99.90;;;;;;5054254;28;20843;-69
2022/01/10 11:20:52;;;;;;;34.57;20.20;;;6.10;99.90;;;;;;5054112;28;20468;-69
2022/01/10 11:23:20;;;;;;;35.30;20.10;;;6.20;99.90;;;;;;5054673;28;20421;-69
2022/01/10 11:25:46;;;;;;;35.83;20.40;;;6.20;99.90;;;;;;5054065;28;20448;-69
2022/01/10 11:28:25;;;;;;;28.53;19.37;;;6.30;99.90;;;;;;5054213;28;20971;-69
2022/01/10 11:30:53;;;;;;;30.40;19.53;;;6.40;99.90;;;;;;5054054;28;20169;-69
2022/01/10 11:33:26;;;;;;;32.50;20.27;;;6.50;99.90;;;;;;5054244;28;20404;-68
2022/01/10 11:35:55;;;;;;;29.93;18.50;;;6.50;99.90;;;;;;5053529;28;20415;-69
2022/01/10 11:38:38;;;;;;;29.90;19.00;;;6.50;99.90;;;;;;5053923;28;20412;-69
2022/01/10 11:41:08;;;;;;;29.57;18.50;;;6.60;99.90;;;;;;5054884;28;20412;-68
2022/01/10 11:43:53;;;;;;;29.53;18.20;;;6.60;99.90;;;;;;5054921;28;20428;-68
2022/01/10 11:46:44;;;;;;;24.30;16.53;;;6.60;99.90;;;;;;5053492;28;20474;-69
2022/01/10 11:49:09;;;;;;;35.40;18.07;;;6.70;99.90;;;;;;5054118;28;20866;-69
2022/01/10 11:51:45;;;;;;;28.43;17.87;;;6.80;99.90;;;;;;5054056;28;20430;-68
2022/01/10 11:54:18;;;;;;;26.60;17.70;;;6.80;99.90;;;;;;5053888;28;20212;-68
2022/01/10 11:56:45;;;;;;;29.70;18.23;;;6.90;99.90;;;;;;5053597;28;20590;-70
2022/01/10 11:59:15;;;;;;;32.73;18.77;;;7.00;99.90;;;;;;5053637;28;20404;-69
2022/01/10 12:01:47;;;;;;;31.27;18.37;;;7.00;99.90;;;;;;5054766;28;20485;-68
2022/01/10 12:04:13;;;;;;;29.37;18.00;;;7.00;99.90;;;;;;5054281;28;20465;-68
2022/01/10 12:06:39;;;;;;;31.50;17.70;;;7.10;99.90;;;;;;5053603;28;20480;-69
2022/01/10 12:09:05;;;;;;;31.03;16.67;;;7.10;99.90;;;;;;5053783;28;20190;-68
2022/01/10 12:11:32;;;;;;;29.43;18.00;;;7.20;99.90;;;;;;5046341;28;20218;-69
2022/01/10 12:13:59;;;;;;;30.33;18.40;;;7.20;99.90;;;;;;5033834;28;20545;-69
2022/01/10 12:16:26;;;;;;;31.23;17.50;;;7.10;99.90;;;;;;5033738;28;20736;-68
2022/01/10 12:18:52;;;;;;;27.43;18.00;;;7.10;99.90;;;;;;5032531;28;20417;-67
2022/01/10 12:21:18;;;;;;;26.17;17.33;;;7.20;99.90;;;;;;5032733;28;20461;-69
2022/01/10 12:23:44;;;;;;;29.43;18.37;;;7.10;99.90;;;;;;5033738;28;20437;-69
2022/01/10 12:26:10;;;;;;;28.27;17.57;;;7.10;99.90;;;;;;5035136;28;20192;-69
2022/01/10 12:28:37;;;;;;;29.27;19.57;;;7.20;99.90;;;;;;5036058;28;20406;-69
2022/01/10 12:31:04;;;;;;;29.93;18.67;;;7.20;99.90;;;;;;5034470;28;20850;-69
2022/01/10 12:33:30;;;;;;;26.90;16.23;;;7.20;99.90;;;;;;5033648;28;20488;-68
2022/01/10 12:35:55;;;;;;;28.63;18.07;;;7.20;99.90;;;;;;5033856;28;20943;-68
2022/01/10 12:38:22;;;;;;;28.03;16.57;;;7.20;99.90;;;;;;5033357;28;20407;-69
2022/01/10 12:40:51;;;;;;;30.33;16.73;;;7.20;99.90;;;;;;5033729;28;20184;-69
2022/01/10 12:43:18;;;;;;;30.97;18.33;;;7.20;99.90;;;;;;5033831;28;20500;-68
2022/01/10 12:45:44;;;;;;;28.57;16.17;;;7.20;99.90;;;;;;5032208;28;20487;-69